sensor_id;sensor_type;location;lat;lon;timestamp;P1;durP1;ratioP1;P2;durP2;ratioP2
19505;SDS011;9894;50.852;-0.140;2023-06-10T00:02:04;3.88;;;3.45;;
19505;SDS011;9894;50.852;-0.140;2023-06-10T00:04:31;3.67;;;2.95;;
19505;SDS011;9894;50.852;-0.140;2023-06-10T00:06:57;2.05;;;1.95;;
19505;SDS011;9894;50.852;-0.140;2023-06-10T00:09:23;3.55;;;3.30;;
19505;SDS011;9894;50.852;-0.140;2023-06-10T00:11:49;2.30;;;2.20;;
19505;SDS011;9894;50.852;-0.140;2023-06-10T00:14:15;5.68;;;2.90;;
19505;SDS011;9894;50.852;-0.140;2023-06-10T00:16:41;4.82;;;3.10;;
19505;SDS011;9894;50.852;-0.140;2023-06-10T00:19:10;2.28;;;2.15;;
19505;SDS011;9894;50.852;-0.140;2023-06-10T00:21:39;4.40;;;2.42;;
19505;SDS011;9894;50.852;-0.140;2023-06-10T00:24:08;3.72;;;3.28;;
19505;SDS011;9894;50.852;-0.140;2023-06-10T00:26:39;7.00;;;3.35;;
19505;SDS011;9894;50.852;-0.140;2023-06-10T00:29:05;3.45;;;2.45;;
19505;SDS011;9894;50.852;-0.140;2023-06-10T00:31:33;2.70;;;2.50;;
19505;SDS011;9894;50.852;-0.140;2023-06-10T00:33:59;4.32;;;2.95;;
19505;SDS011;9894;50.852;-0.140;2023-06-10T00:36:25;3.33;;;2.35;;
19505;SDS011;9894;50.852;-0.140;2023-06-10T00:38:52;8.50;;;3.75;;
19505;SDS011;9894;50.852;-0.140;2023-06-10T00:41:18;2.42;;;2.28;;
19505;SDS011;9894;50.852;-0.140;2023-06-10T00:43:44;5.63;;;2.60;;
19505;SDS011;9894;50.852;-0.140;2023-06-10T00:49:46;2.90;;;2.20;;
19505;SDS011;9894;50.852;-0.140;2023-06-10T00:52:13;3.05;;;2.80;;
19505;SDS011;9894;50.852;-0.140;2023-06-10T00:54:41;2.22;;;2.08;;
19505;SDS011;9894;50.852;-0.140;2023-06-10T00:57:07;10.55;;;2.78;;
19505;SDS011;9894;50.852;-0.140;2023-06-10T00:59:33;4.00;;;2.83;;
19505;SDS011;9894;50.852;-0.140;2023-06-10T01:01:59;2.08;;;1.98;;
19505;SDS011;9894;50.852;-0.140;2023-06-10T01:04:27;3.08;;;2.78;;
19505;SDS011;9894;50.852;-0.140;2023-06-10T01:07:01;4.20;;;3.50;;
19505;SDS011;9894;50.852;-0.140;2023-06-10T01:09:52;6.63;;;2.85;;
19505;SDS011;9894;50.852;-0.140;2023-06-10T01:12:33;2.72;;;2.53;;
19505;SDS011;9894;50.852;-0.140;2023-06-10T01:15:00;2.30;;;2.20;;
19505;SDS011;9894;50.852;-0.140;2023-06-10T01:17:28;2.50;;;2.30;;
19505;SDS011;9894;50.852;-0.140;2023-06-10T01:19:58;2.67;;;2.50;;
19505;SDS011;9894;50.852;-0.140;2023-06-10T01:22:25;11.38;;;3.38;;
19505;SDS011;9894;50.852;-0.140;2023-06-10T01:24:57;2.85;;;2.75;;
19505;SDS011;9894;50.852;-0.140;2023-06-10T01:27:24;3.08;;;2.88;;
19505;SDS011;9894;50.852;-0.140;2023-06-10T01:30:00;4.00;;;3.42;;
19505;SDS011;9894;50.852;-0.140;2023-06-10T01:32:34;2.50;;;2.40;;
19505;SDS011;9894;50.852;-0.140;2023-06-10T01:35:03;3.00;;;2.70;;
19505;SDS011;9894;50.852;-0.140;2023-06-10T01:37:31;2.33;;;2.22;;
19505;SDS011;9894;50.852;-0.140;2023-06-10T01:39:58;3.38;;;3.13;;
19505;SDS011;9894;50.852;-0.140;2023-06-10T01:42:24;2.65;;;2.47;;
19505;SDS011;9894;50.852;-0.140;2023-06-10T01:44:51;2.67;;;2.47;;
19505;SDS011;9894;50.852;-0.140;2023-06-10T01:47:17;2.70;;;2.50;;
19505;SDS011;9894;50.852;-0.140;2023-06-10T01:49:43;2.50;;;2.40;;
19505;SDS011;9894;50.852;-0.140;2023-06-10T01:52:10;2.20;;;2.10;;
19505;SDS011;9894;50.852;-0.140;2023-06-10T01:54:36;2.20;;;2.10;;
19505;SDS011;9894;50.852;-0.140;2023-06-10T01:57:02;3.13;;;2.55;;
19505;SDS011;9894;50.852;-0.140;2023-06-10T01:59:28;3.42;;;3.22;;
19505;SDS011;9894;50.852;-0.140;2023-06-10T02:01:55;2.33;;;2.22;;
19505;SDS011;9894;50.852;-0.140;2023-06-10T02:04:21;2.13;;;2.03;;
19505;SDS011;9894;50.852;-0.140;2023-06-10T02:06:47;2.15;;;2.05;;
19505;SDS011;9894;50.852;-0.140;2023-06-10T02:09:16;2.20;;;2.10;;
19505;SDS011;9894;50.852;-0.140;2023-06-10T02:11:44;2.00;;;1.90;;
19505;SDS011;9894;50.852;-0.140;2023-06-10T02:14:10;2.92;;;2.72;;
19505;SDS011;9894;50.852;-0.140;2023-06-10T02:16:36;29.25;;;2.55;;
19505;SDS011;9894;50.852;-0.140;2023-06-10T02:19:02;17.17;;;3.55;;
19505;SDS011;9894;50.852;-0.140;2023-06-10T02:21:31;1.48;;;1.48;;
19505;SDS011;9894;50.852;-0.140;2023-06-10T02:23:59;1.85;;;1.75;;
19505;SDS011;9894;50.852;-0.140;2023-06-10T02:26:26;8.95;;;2.97;;
19505;SDS011;9894;50.852;-0.140;2023-06-10T02:28:52;2.00;;;1.80;;
19505;SDS011;9894;50.852;-0.140;2023-06-10T02:31:18;5.07;;;3.17;;
19505;SDS011;9894;50.852;-0.140;2023-06-10T02:33:45;1.83;;;1.73;;
19505;SDS011;9894;50.852;-0.140;2023-06-10T02:36:11;2.00;;;1.88;;
19505;SDS011;9894;50.852;-0.140;2023-06-10T02:38:40;1.30;;;1.30;;
19505;SDS011;9894;50.852;-0.140;2023-06-10T02:41:07;4.00;;;2.65;;
19505;SDS011;9894;50.852;-0.140;2023-06-10T02:43:33;7.13;;;2.90;;
19505;SDS011;9894;50.852;-0.140;2023-06-10T02:45:59;1.10;;;1.10;;
19505;SDS011;9894;50.852;-0.140;2023-06-10T02:48:26;1.50;;;1.40;;
19505;SDS011;9894;50.852;-0.140;2023-06-10T02:50:52;1.33;;;1.30;;
19505;SDS011;9894;50.852;-0.140;2023-06-10T02:53:18;4.22;;;1.48;;
19505;SDS011;9894;50.852;-0.140;2023-06-10T02:55:45;5.28;;;2.83;;
19505;SDS011;9894;50.852;-0.140;2023-06-10T02:58:11;1.40;;;1.30;;
19505;SDS011;9894;50.852;-0.140;2023-06-10T03:00:37;1.83;;;1.73;;
19505;SDS011;9894;50.852;-0.140;2023-06-10T03:03:05;1.85;;;1.70;;
19505;SDS011;9894;50.852;-0.140;2023-06-10T03:05:32;1.30;;;1.17;;
19505;SDS011;9894;50.852;-0.140;2023-06-10T03:07:58;1.85;;;1.65;;
19505;SDS011;9894;50.852;-0.140;2023-06-10T03:10:24;1.02;;;1.02;;
19505;SDS011;9894;50.852;-0.140;2023-06-10T03:12:51;2.50;;;1.98;;
19505;SDS011;9894;50.852;-0.140;2023-06-10T03:15:18;1.70;;;1.60;;
19505;SDS011;9894;50.852;-0.140;2023-06-10T03:17:45;16.20;;;3.40;;
19505;SDS011;9894;50.852;-0.140;2023-06-10T03:20:12;1.75;;;1.55;;
19505;SDS011;9894;50.852;-0.140;2023-06-10T03:22:40;1.27;;;1.27;;
19505;SDS011;9894;50.852;-0.140;2023-06-10T03:25:07;2.17;;;1.60;;
19505;SDS011;9894;50.852;-0.140;2023-06-10T03:27:39;3.55;;;2.13;;
19505;SDS011;9894;50.852;-0.140;2023-06-10T03:30:05;1.10;;;1.10;;
19505;SDS011;9894;50.852;-0.140;2023-06-10T03:32:31;0.98;;;0.98;;
19505;SDS011;9894;50.852;-0.140;2023-06-10T03:34:57;12.95;;;2.00;;
19505;SDS011;9894;50.852;-0.140;2023-06-10T03:37:24;1.40;;;1.35;;
19505;SDS011;9894;50.852;-0.140;2023-06-10T03:39:50;0.70;;;0.70;;
19505;SDS011;9894;50.852;-0.140;2023-06-10T03:42:16;2.08;;;1.30;;
19505;SDS011;9894;50.852;-0.140;2023-06-10T03:44:42;5.60;;;2.50;;
19505;SDS011;9894;50.852;-0.140;2023-06-10T03:47:09;1.65;;;1.35;;
19505;SDS011;9894;50.852;-0.140;2023-06-10T03:49:35;1.20;;;1.10;;
19505;SDS011;9894;50.852;-0.140;2023-06-10T03:52:01;0.70;;;0.70;;
19505;SDS011;9894;50.852;-0.140;2023-06-10T03:54:27;1.70;;;1.55;;
19505;SDS011;9894;50.852;-0.140;2023-06-10T03:56:53;1.00;;;1.00;;
19505;SDS011;9894;50.852;-0.140;2023-06-10T03:59:20;2.20;;;1.80;;
19505;SDS011;9894;50.852;-0.140;2023-06-10T04:01:46;1.58;;;1.48;;
19505;SDS011;9894;50.852;-0.140;2023-06-10T04:04:13;0.80;;;0.80;;
19505;SDS011;9894;50.852;-0.140;2023-06-10T04:06:43;3.30;;;1.65;;
19505;SDS011;9894;50.852;-0.140;2023-06-10T04:09:09;23.65;;;3.42;;
19505;SDS011;9894;50.852;-0.140;2023-06-10T04:11:36;1.10;;;1.10;;
19505;SDS011;9894;50.852;-0.140;2023-06-10T04:14:02;1.60;;;1.50;;
19505;SDS011;9894;50.852;-0.140;2023-06-10T04:16:28;2.55;;;2.35;;
19505;SDS011;9894;50.852;-0.140;2023-06-10T04:18:54;3.45;;;1.75;;
19505;SDS011;9894;50.852;-0.140;2023-06-10T04:21:20;12.85;;;2.08;;
19505;SDS011;9894;50.852;-0.140;2023-06-10T04:23:47;1.60;;;1.45;;
19505;SDS011;9894;50.852;-0.140;2023-06-10T04:26:13;2.05;;;1.75;;
19505;SDS011;9894;50.852;-0.140;2023-06-10T04:28:42;1.67;;;1.58;;
19505;SDS011;9894;50.852;-0.140;2023-06-10T04:31:08;1.25;;;1.25;;
19505;SDS011;9894;50.852;-0.140;2023-06-10T04:33:35;1.20;;;1.20;;
19505;SDS011;9894;50.852;-0.140;2023-06-10T04:36:01;1.50;;;1.40;;
19505;SDS011;9894;50.852;-0.140;2023-06-10T04:38:27;1.40;;;1.40;;
19505;SDS011;9894;50.852;-0.140;2023-06-10T04:40:55;1.70;;;1.60;;
19505;SDS011;9894;50.852;-0.140;2023-06-10T04:43:21;2.60;;;2.40;;
19505;SDS011;9894;50.852;-0.140;2023-06-10T04:45:47;1.50;;;1.50;;
19505;SDS011;9894;50.852;-0.140;2023-06-10T04:48:14;1.63;;;1.63;;
19505;SDS011;9894;50.852;-0.140;2023-06-10T04:50:40;1.70;;;1.70;;
19505;SDS011;9894;50.852;-0.140;2023-06-10T04:53:06;10.32;;;1.98;;
19505;SDS011;9894;50.852;-0.140;2023-06-10T04:55:32;2.00;;;1.90;;
19505;SDS011;9894;50.852;-0.140;2023-06-10T04:57:59;2.17;;;2.08;;
19505;SDS011;9894;50.852;-0.140;2023-06-10T05:00:25;3.17;;;2.20;;
19505;SDS011;9894;50.852;-0.140;2023-06-10T05:02:51;2.97;;;2.42;;
19505;SDS011;9894;50.852;-0.140;2023-06-10T05:05:17;3.55;;;2.50;;
19505;SDS011;9894;50.852;-0.140;2023-06-10T05:07:44;2.22;;;2.13;;
19505;SDS011;9894;50.852;-0.140;2023-06-10T05:10:10;1.88;;;1.77;;
19505;SDS011;9894;50.852;-0.140;2023-06-10T05:12:38;2.88;;;2.67;;
19505;SDS011;9894;50.852;-0.140;2023-06-10T05:15:05;3.40;;;2.60;;
19505;SDS011;9894;50.852;-0.140;2023-06-10T05:17:31;2.03;;;1.92;;
19505;SDS011;9894;50.852;-0.140;2023-06-10T05:19:57;3.65;;;3.35;;
19505;SDS011;9894;50.852;-0.140;2023-06-10T05:22:24;3.65;;;2.85;;
19505;SDS011;9894;50.852;-0.140;2023-06-10T05:24:50;2.63;;;2.42;;
19505;SDS011;9894;50.852;-0.140;2023-06-10T05:27:16;2.30;;;2.20;;
19505;SDS011;9894;50.852;-0.140;2023-06-10T05:29:43;3.95;;;3.65;;
19505;SDS011;9894;50.852;-0.140;2023-06-10T05:32:10;2.17;;;2.08;;
19505;SDS011;9894;50.852;-0.140;2023-06-10T05:34:36;2.65;;;2.55;;
19505;SDS011;9894;50.852;-0.140;2023-06-10T05:37:03;2.50;;;2.40;;
19505;SDS011;9894;50.852;-0.140;2023-06-10T05:39:29;2.85;;;2.72;;
19505;SDS011;9894;50.852;-0.140;2023-06-10T05:41:55;3.10;;;2.90;;
19505;SDS011;9894;50.852;-0.140;2023-06-10T05:44:24;3.42;;;2.85;;
19505;SDS011;9894;50.852;-0.140;2023-06-10T05:46:50;3.25;;;3.05;;
19505;SDS011;9894;50.852;-0.140;2023-06-10T05:49:16;2.70;;;2.60;;
19505;SDS011;9894;50.852;-0.140;2023-06-10T05:51:42;3.05;;;2.95;;
19505;SDS011;9894;50.852;-0.140;2023-06-10T05:54:09;3.00;;;2.90;;
19505;SDS011;9894;50.852;-0.140;2023-06-10T05:56:35;3.10;;;3.00;;
19505;SDS011;9894;50.852;-0.140;2023-06-10T05:59:01;3.50;;;3.30;;
19505;SDS011;9894;50.852;-0.140;2023-06-10T06:01:27;5.95;;;3.67;;
19505;SDS011;9894;50.852;-0.140;2023-06-10T06:03:59;6.03;;;3.60;;
19505;SDS011;9894;50.852;-0.140;2023-06-10T06:06:25;4.00;;;3.80;;
19505;SDS011;9894;50.852;-0.140;2023-06-10T06:08:51;4.70;;;4.40;;
19505;SDS011;9894;50.852;-0.140;2023-06-10T06:11:17;5.18;;;4.72;;
19505;SDS011;9894;50.852;-0.140;2023-06-10T06:13:43;4.30;;;4.10;;
19505;SDS011;9894;50.852;-0.140;2023-06-10T06:16:10;8.02;;;7.25;;
19505;SDS011;9894;50.852;-0.140;2023-06-10T06:18:36;5.00;;;4.70;;
19505;SDS011;9894;50.852;-0.140;2023-06-10T06:21:02;5.30;;;5.00;;
19505;SDS011;9894;50.852;-0.140;2023-06-10T06:23:28;5.80;;;5.40;;
19505;SDS011;9894;50.852;-0.140;2023-06-10T06:25:55;5.93;;;5.53;;
19505;SDS011;9894;50.852;-0.140;2023-06-10T06:28:21;7.03;;;6.55;;
19505;SDS011;9894;50.852;-0.140;2023-06-10T06:30:47;6.55;;;6.05;;
19505;SDS011;9894;50.852;-0.140;2023-06-10T06:33:14;8.27;;;6.93;;
19505;SDS011;9894;50.852;-0.140;2023-06-10T06:35:40;8.98;;;8.18;;
19505;SDS011;9894;50.852;-0.140;2023-06-10T06:38:06;8.35;;;7.75;;
19505;SDS011;9894;50.852;-0.140;2023-06-10T06:40:32;8.10;;;7.50;;
19505;SDS011;9894;50.852;-0.140;2023-06-10T06:42:58;8.90;;;8.30;;
19505;SDS011;9894;50.852;-0.140;2023-06-10T06:45:24;8.68;;;8.07;;
19505;SDS011;9894;50.852;-0.140;2023-06-10T06:47:50;9.43;;;8.73;;
19505;SDS011;9894;50.852;-0.140;2023-06-10T06:50:17;10.27;;;9.50;;
19505;SDS011;9894;50.852;-0.140;2023-06-10T06:52:43;10.15;;;9.45;;
19505;SDS011;9894;50.852;-0.140;2023-06-10T06:55:09;9.68;;;8.98;;
19505;SDS011;9894;50.852;-0.140;2023-06-10T06:57:35;11.52;;;10.73;;
19505;SDS011;9894;50.852;-0.140;2023-06-10T07:00:02;13.52;;;12.63;;
19505;SDS011;9894;50.852;-0.140;2023-06-10T07:02:29;12.10;;;11.30;;
19505;SDS011;9894;50.852;-0.140;2023-06-10T07:04:57;13.68;;;12.77;;
19505;SDS011;9894;50.852;-0.140;2023-06-10T07:07:24;13.82;;;12.50;;
19505;SDS011;9894;50.852;-0.140;2023-06-10T07:09:50;13.70;;;12.80;;
19505;SDS011;9894;50.852;-0.140;2023-06-10T07:12:16;14.02;;;13.05;;
19505;SDS011;9894;50.852;-0.140;2023-06-10T07:14:43;14.70;;;13.70;;
19505;SDS011;9894;50.852;-0.140;2023-06-10T07:17:10;15.30;;;14.20;;
19505;SDS011;9894;50.852;-0.140;2023-06-10T07:19:36;14.60;;;13.60;;
19505;SDS011;9894;50.852;-0.140;2023-06-10T07:22:02;14.18;;;13.25;;
19505;SDS011;9894;50.852;-0.140;2023-06-10T07:24:28;14.15;;;13.15;;
19505;SDS011;9894;50.852;-0.140;2023-06-10T07:26:54;14.68;;;13.65;;
19505;SDS011;9894;50.852;-0.140;2023-06-10T07:29:20;16.00;;;14.90;;
19505;SDS011;9894;50.852;-0.140;2023-06-10T07:31:47;14.93;;;13.93;;
19505;SDS011;9894;50.852;-0.140;2023-06-10T07:34:13;16.88;;;15.68;;
19505;SDS011;9894;50.852;-0.140;2023-06-10T07:36:39;16.92;;;15.82;;
19505;SDS011;9894;50.852;-0.140;2023-06-10T07:39:05;16.70;;;15.50;;
19505;SDS011;9894;50.852;-0.140;2023-06-10T07:41:32;18.05;;;16.65;;
19505;SDS011;9894;50.852;-0.140;2023-06-10T07:43:58;19.98;;;18.67;;
19505;SDS011;9894;50.852;-0.140;2023-06-10T07:46:24;20.27;;;18.88;;
19505;SDS011;9894;50.852;-0.140;2023-06-10T07:48:53;21.20;;;19.70;;
19505;SDS011;9894;50.852;-0.140;2023-06-10T07:51:20;16.63;;;15.52;;
19505;SDS011;9894;50.852;-0.140;2023-06-10T07:53:46;17.75;;;16.33;;
19505;SDS011;9894;50.852;-0.140;2023-06-10T07:56:12;24.67;;;19.38;;
19505;SDS011;9894;50.852;-0.140;2023-06-10T07:58:38;19.52;;;18.23;;
19505;SDS011;9894;50.852;-0.140;2023-06-10T08:01:04;17.45;;;16.35;;
19505;SDS011;9894;50.852;-0.140;2023-06-10T08:03:30;22.38;;;20.92;;
19505;SDS011;9894;50.852;-0.140;2023-06-10T08:05:57;18.13;;;16.92;;
19505;SDS011;9894;50.852;-0.140;2023-06-10T08:08:26;17.70;;;16.60;;
19505;SDS011;9894;50.852;-0.140;2023-06-10T08:10:52;19.58;;;18.27;;
19505;SDS011;9894;50.852;-0.140;2023-06-10T08:13:18;18.75;;;17.55;;
19505;SDS011;9894;50.852;-0.140;2023-06-10T08:15:44;18.65;;;17.45;;
19505;SDS011;9894;50.852;-0.140;2023-06-10T08:18:13;18.55;;;17.35;;
19505;SDS011;9894;50.852;-0.140;2023-06-10T08:20:39;19.02;;;17.73;;
19505;SDS011;9894;50.852;-0.140;2023-06-10T08:23:05;19.95;;;18.65;;
19505;SDS011;9894;50.852;-0.140;2023-06-10T08:25:31;17.92;;;16.52;;
19505;SDS011;9894;50.852;-0.140;2023-06-10T08:27:57;19.65;;;18.40;;
19505;SDS011;9894;50.852;-0.140;2023-06-10T08:30:23;22.35;;;20.95;;
19505;SDS011;9894;50.852;-0.140;2023-06-10T08:32:49;20.83;;;18.95;;
19505;SDS011;9894;50.852;-0.140;2023-06-10T08:35:17;22.30;;;20.90;;
19505;SDS011;9894;50.852;-0.140;2023-06-10T08:37:43;17.45;;;16.35;;
19505;SDS011;9894;50.852;-0.140;2023-06-10T08:40:09;19.05;;;17.85;;
19505;SDS011;9894;50.852;-0.140;2023-06-10T08:45:02;15.75;;;14.75;;
19505;SDS011;9894;50.852;-0.140;2023-06-10T08:47:29;14.95;;;13.95;;
19505;SDS011;9894;50.852;-0.140;2023-06-10T08:50:01;12.57;;;11.77;;
19505;SDS011;9894;50.852;-0.140;2023-06-10T08:52:29;10.38;;;9.68;;
19505;SDS011;9894;50.852;-0.140;2023-06-10T08:55:00;10.90;;;10.13;;
19505;SDS011;9894;50.852;-0.140;2023-06-10T08:57:27;10.30;;;9.60;;
19505;SDS011;9894;50.852;-0.140;2023-06-10T08:59:56;9.73;;;9.10;;
19505;SDS011;9894;50.852;-0.140;2023-06-10T09:02:23;8.77;;;8.18;;
19505;SDS011;9894;50.852;-0.140;2023-06-10T09:04:50;9.20;;;8.60;;
19505;SDS011;9894;50.852;-0.140;2023-06-10T09:07:17;10.00;;;9.30;;
19505;SDS011;9894;50.852;-0.140;2023-06-10T09:09:43;9.80;;;9.10;;
19505;SDS011;9894;50.852;-0.140;2023-06-10T09:12:10;8.18;;;7.68;;
19505;SDS011;9894;50.852;-0.140;2023-06-10T09:14:36;8.32;;;7.72;;
19505;SDS011;9894;50.852;-0.140;2023-06-10T09:17:05;7.80;;;7.30;;
19505;SDS011;9894;50.852;-0.140;2023-06-10T09:19:32;7.60;;;7.10;;
19505;SDS011;9894;50.852;-0.140;2023-06-10T09:21:58;7.63;;;7.13;;
19505;SDS011;9894;50.852;-0.140;2023-06-10T09:24:24;7.70;;;7.20;;
19505;SDS011;9894;50.852;-0.140;2023-06-10T09:27:01;7.25;;;6.75;;
19505;SDS011;9894;50.852;-0.140;2023-06-10T09:29:27;8.77;;;8.18;;
19505;SDS011;9894;50.852;-0.140;2023-06-10T09:31:54;8.63;;;8.00;;
19505;SDS011;9894;50.852;-0.140;2023-06-10T09:34:20;9.15;;;8.45;;
19505;SDS011;9894;50.852;-0.140;2023-06-10T09:36:50;6.40;;;6.00;;
19505;SDS011;9894;50.852;-0.140;2023-06-10T09:39:17;7.60;;;7.10;;
19505;SDS011;9894;50.852;-0.140;2023-06-10T09:41:44;7.53;;;7.03;;
19505;SDS011;9894;50.852;-0.140;2023-06-10T09:44:14;6.47;;;6.05;;
19505;SDS011;9894;50.852;-0.140;2023-06-10T09:46:41;6.70;;;6.30;;
19505;SDS011;9894;50.852;-0.140;2023-06-10T09:49:07;5.38;;;5.07;;
19505;SDS011;9894;50.852;-0.140;2023-06-10T09:51:33;6.60;;;6.20;;
19505;SDS011;9894;50.852;-0.140;2023-06-10T09:54:01;6.68;;;6.22;;
19505;SDS011;9894;50.852;-0.140;2023-06-10T09:56:37;7.85;;;7.15;;
19505;SDS011;9894;50.852;-0.140;2023-06-10T09:59:07;5.80;;;5.18;;
19505;SDS011;9894;50.852;-0.140;2023-06-10T10:01:34;6.43;;;5.93;;
19505;SDS011;9894;50.852;-0.140;2023-06-10T10:04:00;6.13;;;5.22;;
19505;SDS011;9894;50.852;-0.140;2023-06-10T10:06:28;5.50;;;5.20;;
19505;SDS011;9894;50.852;-0.140;2023-06-10T10:08:54;4.75;;;4.45;;
19505;SDS011;9894;50.852;-0.140;2023-06-10T10:11:21;5.25;;;4.95;;
19505;SDS011;9894;50.852;-0.140;2023-06-10T10:13:49;4.70;;;4.40;;
19505;SDS011;9894;50.852;-0.140;2023-06-10T10:16:16;5.80;;;5.40;;
19505;SDS011;9894;50.852;-0.140;2023-06-10T10:18:49;4.70;;;4.40;;
19505;SDS011;9894;50.852;-0.140;2023-06-10T10:21:16;4.45;;;4.22;;
19505;SDS011;9894;50.852;-0.140;2023-06-10T10:23:53;5.10;;;4.80;;
19505;SDS011;9894;50.852;-0.140;2023-06-10T10:26:21;5.60;;;5.30;;
19505;SDS011;9894;50.852;-0.140;2023-06-10T10:28:51;5.13;;;4.82;;
19505;SDS011;9894;50.852;-0.140;2023-06-10T10:31:19;5.88;;;5.50;;
19505;SDS011;9894;50.852;-0.140;2023-06-10T10:33:49;5.80;;;5.45;;
19505;SDS011;9894;50.852;-0.140;2023-06-10T10:36:18;5.10;;;4.70;;
19505;SDS011;9894;50.852;-0.140;2023-06-10T10:38:45;5.25;;;4.95;;
19505;SDS011;9894;50.852;-0.140;2023-06-10T10:41:11;5.50;;;5.20;;
19505;SDS011;9894;50.852;-0.140;2023-06-10T10:43:38;5.30;;;5.00;;
19505;SDS011;9894;50.852;-0.140;2023-06-10T10:46:12;5.60;;;5.30;;
19505;SDS011;9894;50.852;-0.140;2023-06-10T10:48:38;4.45;;;4.25;;
19505;SDS011;9894;50.852;-0.140;2023-06-10T10:51:06;4.93;;;4.63;;
19505;SDS011;9894;50.852;-0.140;2023-06-10T10:53:32;5.20;;;4.90;;
19505;SDS011;9894;50.852;-0.140;2023-06-10T10:58:25;5.13;;;4.80;;
19505;SDS011;9894;50.852;-0.140;2023-06-10T11:00:51;5.13;;;4.72;;
19505;SDS011;9894;50.852;-0.140;2023-06-10T11:03:17;4.60;;;4.30;;
19505;SDS011;9894;50.852;-0.140;2023-06-10T11:05:46;5.05;;;4.75;;
19505;SDS011;9894;50.852;-0.140;2023-06-10T11:10:54;5.28;;;4.95;;
19505;SDS011;9894;50.852;-0.140;2023-06-10T11:13:21;5.30;;;5.00;;
19505;SDS011;9894;50.852;-0.140;2023-06-10T11:15:48;5.20;;;4.90;;
19505;SDS011;9894;50.852;-0.140;2023-06-10T11:18:24;5.57;;;5.18;;
19505;SDS011;9894;50.852;-0.140;2023-06-10T11:31:21;4.68;;;4.38;;
19505;SDS011;9894;50.852;-0.140;2023-06-10T11:33:48;5.97;;;5.55;;
19505;SDS011;9894;50.852;-0.140;2023-06-10T11:36:21;5.40;;;5.10;;
19505;SDS011;9894;50.852;-0.140;2023-06-10T11:38:47;5.70;;;5.40;;
19505;SDS011;9894;50.852;-0.140;2023-06-10T11:41:14;7.03;;;6.43;;
19505;SDS011;9894;50.852;-0.140;2023-06-10T11:43:42;5.22;;;4.93;;
19505;SDS011;9894;50.852;-0.140;2023-06-10T11:46:09;4.88;;;4.57;;
19505;SDS011;9894;50.852;-0.140;2023-06-10T11:48:35;4.70;;;4.40;;
19505;SDS011;9894;50.852;-0.140;2023-06-10T11:51:05;5.50;;;5.20;;
19505;SDS011;9894;50.852;-0.140;2023-06-10T11:53:31;5.88;;;5.47;;
19505;SDS011;9894;50.852;-0.140;2023-06-10T11:55:57;8.60;;;5.50;;
19505;SDS011;9894;50.852;-0.140;2023-06-10T11:58:23;5.10;;;4.80;;
19505;SDS011;9894;50.852;-0.140;2023-06-10T12:00:53;5.05;;;4.75;;
19505;SDS011;9894;50.852;-0.140;2023-06-10T12:03:23;5.22;;;4.90;;
19505;SDS011;9894;50.852;-0.140;2023-06-10T12:05:55;5.75;;;5.40;;
19505;SDS011;9894;50.852;-0.140;2023-06-10T12:08:22;5.40;;;5.10;;
19505;SDS011;9894;50.852;-0.140;2023-06-10T12:10:49;5.30;;;5.00;;
19505;SDS011;9894;50.852;-0.140;2023-06-10T12:13:15;5.57;;;5.28;;
19505;SDS011;9894;50.852;-0.140;2023-06-10T12:15:43;6.10;;;5.70;;
19505;SDS011;9894;50.852;-0.140;2023-06-10T12:18:19;6.38;;;5.97;;
19505;SDS011;9894;50.852;-0.140;2023-06-10T12:20:46;6.47;;;6.07;;
19505;SDS011;9894;50.852;-0.140;2023-06-10T12:23:13;6.97;;;6.53;;
19505;SDS011;9894;50.852;-0.140;2023-06-10T12:25:42;6.93;;;6.43;;
19505;SDS011;9894;50.852;-0.140;2023-06-10T12:28:15;5.80;;;5.45;;
19505;SDS011;9894;50.852;-0.140;2023-06-10T12:30:42;6.32;;;5.93;;
19505;SDS011;9894;50.852;-0.140;2023-06-10T12:33:18;6.00;;;5.60;;
19505;SDS011;9894;50.852;-0.140;2023-06-10T12:35:48;6.90;;;6.40;;
19505;SDS011;9894;50.852;-0.140;2023-06-10T12:41:37;6.63;;;6.22;;
19505;SDS011;9894;50.852;-0.140;2023-06-10T12:44:03;6.22;;;5.82;;
19505;SDS011;9894;50.852;-0.140;2023-06-10T12:46:37;5.80;;;5.50;;
19505;SDS011;9894;50.852;-0.140;2023-06-10T12:49:03;6.13;;;5.72;;
19505;SDS011;9894;50.852;-0.140;2023-06-10T12:51:29;6.20;;;5.80;;
19505;SDS011;9894;50.852;-0.140;2023-06-10T12:53:55;5.80;;;5.50;;
19505;SDS011;9894;50.852;-0.140;2023-06-10T12:56:21;5.30;;;5.00;;
19505;SDS011;9894;50.852;-0.140;2023-06-10T12:58:49;6.95;;;5.88;;
19505;SDS011;9894;50.852;-0.140;2023-06-10T13:01:15;6.13;;;5.72;;
19505;SDS011;9894;50.852;-0.140;2023-06-10T13:03:41;5.25;;;4.95;;
19505;SDS011;9894;50.852;-0.140;2023-06-10T13:06:07;4.97;;;4.68;;
19505;SDS011;9894;50.852;-0.140;2023-06-10T13:08:33;5.30;;;5.00;;
19505;SDS011;9894;50.852;-0.140;2023-06-10T13:10:59;5.30;;;5.00;;
19505;SDS011;9894;50.852;-0.140;2023-06-10T13:13:25;5.60;;;5.30;;
19505;SDS011;9894;50.852;-0.140;2023-06-10T13:15:51;5.00;;;4.70;;
19505;SDS011;9894;50.852;-0.140;2023-06-10T13:18:17;6.10;;;5.70;;
19505;SDS011;9894;50.852;-0.140;2023-06-10T13:20:44;5.35;;;5.05;;
19505;SDS011;9894;50.852;-0.140;2023-06-10T13:23:10;5.32;;;5.03;;
19505;SDS011;9894;50.852;-0.140;2023-06-10T13:25:37;4.20;;;4.00;;
19505;SDS011;9894;50.852;-0.140;2023-06-10T13:28:03;5.72;;;5.32;;
19505;SDS011;9894;50.852;-0.140;2023-06-10T13:30:29;5.03;;;4.70;;
19505;SDS011;9894;50.852;-0.140;2023-06-10T13:32:55;4.60;;;4.32;;
19505;SDS011;9894;50.852;-0.140;2023-06-10T13:35:21;5.53;;;5.03;;
19505;SDS011;9894;50.852;-0.140;2023-06-10T13:37:47;5.10;;;4.80;;
19505;SDS011;9894;50.852;-0.140;2023-06-10T13:40:14;5.50;;;5.20;;
19505;SDS011;9894;50.852;-0.140;2023-06-10T13:42:40;5.07;;;4.78;;
19505;SDS011;9894;50.852;-0.140;2023-06-10T13:45:07;6.03;;;5.63;;
19505;SDS011;9894;50.852;-0.140;2023-06-10T13:47:34;6.80;;;6.30;;
19505;SDS011;9894;50.852;-0.140;2023-06-10T13:50:00;4.47;;;4.28;;
19505;SDS011;9894;50.852;-0.140;2023-06-10T13:52:27;4.95;;;4.65;;
19505;SDS011;9894;50.852;-0.140;2023-06-10T13:54:53;4.93;;;4.63;;
19505;SDS011;9894;50.852;-0.140;2023-06-10T13:57:19;5.07;;;4.78;;
19505;SDS011;9894;50.852;-0.140;2023-06-10T13:59:45;5.43;;;5.13;;
19505;SDS011;9894;50.852;-0.140;2023-06-10T14:02:11;5.40;;;5.10;;
19505;SDS011;9894;50.852;-0.140;2023-06-10T14:04:37;5.40;;;5.10;;
19505;SDS011;9894;50.852;-0.140;2023-06-10T14:10:26;5.40;;;5.07;;
19505;SDS011;9894;50.852;-0.140;2023-06-10T14:12:52;5.60;;;5.30;;
19505;SDS011;9894;50.852;-0.140;2023-06-10T14:15:18;6.35;;;5.95;;
19505;SDS011;9894;50.852;-0.140;2023-06-10T14:17:45;6.00;;;5.60;;
19505;SDS011;9894;50.852;-0.140;2023-06-10T14:20:11;6.10;;;5.70;;
19505;SDS011;9894;50.852;-0.140;2023-06-10T14:22:38;4.88;;;4.57;;
19505;SDS011;9894;50.852;-0.140;2023-06-10T14:25:04;5.43;;;5.13;;
19505;SDS011;9894;50.852;-0.140;2023-06-10T14:27:30;6.22;;;5.78;;
19505;SDS011;9894;50.852;-0.140;2023-06-10T14:29:56;5.07;;;4.78;;
19505;SDS011;9894;50.852;-0.140;2023-06-10T14:32:22;5.45;;;5.15;;
19505;SDS011;9894;50.852;-0.140;2023-06-10T14:34:48;5.32;;;5.03;;
19505;SDS011;9894;50.852;-0.140;2023-06-10T14:37:15;5.80;;;5.40;;
19505;SDS011;9894;50.852;-0.140;2023-06-10T14:39:41;5.75;;;5.35;;
19505;SDS011;9894;50.852;-0.140;2023-06-10T14:42:07;4.85;;;4.55;;
19505;SDS011;9894;50.852;-0.140;2023-06-10T14:44:33;5.38;;;5.07;;
19505;SDS011;9894;50.852;-0.140;2023-06-10T14:46:59;5.45;;;5.15;;
19505;SDS011;9894;50.852;-0.140;2023-06-10T14:49:25;5.00;;;4.70;;
19505;SDS011;9894;50.852;-0.140;2023-06-10T14:51:51;6.25;;;5.80;;
19505;SDS011;9894;50.852;-0.140;2023-06-10T14:54:17;5.07;;;4.78;;
19505;SDS011;9894;50.852;-0.140;2023-06-10T14:56:44;5.88;;;5.47;;
19505;SDS011;9894;50.852;-0.140;2023-06-10T14:59:10;6.38;;;5.93;;
19505;SDS011;9894;50.852;-0.140;2023-06-10T15:01:36;5.30;;;5.00;;
19505;SDS011;9894;50.852;-0.140;2023-06-10T15:04:02;4.50;;;4.20;;
19505;SDS011;9894;50.852;-0.140;2023-06-10T15:06:28;5.70;;;5.35;;
19505;SDS011;9894;50.852;-0.140;2023-06-10T15:08:54;5.50;;;5.10;;
19505;SDS011;9894;50.852;-0.140;2023-06-10T15:11:21;4.90;;;4.60;;